sensor_id;sensor_type;location;lat;lon;timestamp;temperature;humidity
40023;DHT22;25713;-35.352;149.036;2023-04-05T00:01:44;18.60;90.70
40023;DHT22;25713;-35.352;149.036;2023-04-05T00:04:14;18.70;90.60
40023;DHT22;25713;-35.352;149.036;2023-04-05T00:06:43;18.70;90.10
40023;DHT22;25713;-35.352;149.036;2023-04-05T00:09:13;18.70;90.00
40023;DHT22;25713;-35.352;149.036;2023-04-05T00:11:42;18.70;89.70
40023;DHT22;25713;-35.352;149.036;2023-04-05T00:14:13;18.70;89.60
40023;DHT22;25713;-35.352;149.036;2023-04-05T00:16:43;18.70;89.50
40023;DHT22;25713;-35.352;149.036;2023-04-05T00:19:12;18.70;89.40
40023;DHT22;25713;-35.352;149.036;2023-04-05T00:21:42;18.70;89.30
40023;DHT22;25713;-35.352;149.036;2023-04-05T00:24:11;18.70;89.40
40023;DHT22;25713;-35.352;149.036;2023-04-05T00:26:41;18.80;90.00
40023;DHT22;25713;-35.352;149.036;2023-04-05T00:29:10;19.00;89.80
40023;DHT22;25713;-35.352;149.036;2023-04-05T00:31:42;19.10;89.30
40023;DHT22;25713;-35.352;149.036;2023-04-05T00:34:11;19.20;89.00
40023;DHT22;25713;-35.352;149.036;2023-04-05T00:36:40;19.30;88.10
40023;DHT22;25713;-35.352;149.036;2023-04-05T00:39:10;19.30;87.90
40023;DHT22;25713;-35.352;149.036;2023-04-05T00:41:39;19.30;88.00
40023;DHT22;25713;-35.352;149.036;2023-04-05T00:44:09;19.30;88.70
40023;DHT22;25713;-35.352;149.036;2023-04-05T00:46:40;19.30;88.30
40023;DHT22;25713;-35.352;149.036;2023-04-05T00:49:11;19.30;88.10
40023;DHT22;25713;-35.352;149.036;2023-04-05T00:51:40;19.20;88.20
40023;DHT22;25713;-35.352;149.036;2023-04-05T00:54:10;19.20;89.30
40023;DHT22;25713;-35.352;149.036;2023-04-05T00:56:41;19.30;89.60
40023;DHT22;25713;-35.352;149.036;2023-04-05T00:59:10;19.40;88.60
40023;DHT22;25713;-35.352;149.036;2023-04-05T01:01:42;19.40;87.80
40023;DHT22;25713;-35.352;149.036;2023-04-05T01:04:11;19.50;87.50
40023;DHT22;25713;-35.352;149.036;2023-04-05T01:06:50;19.50;87.40
40023;DHT22;25713;-35.352;149.036;2023-04-05T01:09:36;19.60;87.60
40023;DHT22;25713;-35.352;149.036;2023-04-05T01:12:08;19.60;87.20
40023;DHT22;25713;-35.352;149.036;2023-04-05T01:14:48;19.70;87.20
40023;DHT22;25713;-35.352;149.036;2023-04-05T01:17:20;19.70;87.50
40023;DHT22;25713;-35.352;149.036;2023-04-05T01:19:51;19.70;87.10
40023;DHT22;25713;-35.352;149.036;2023-04-05T01:25:47;19.80;86.50
40023;DHT22;25713;-35.352;149.036;2023-04-05T01:28:55;19.80;87.00
40023;DHT22;25713;-35.352;149.036;2023-04-05T01:31:34;19.90;86.10
40023;DHT22;25713;-35.352;149.036;2023-04-05T01:34:11;20.00;85.60
40023;DHT22;25713;-35.352;149.036;2023-04-05T01:36:47;20.00;85.80
40023;DHT22;25713;-35.352;149.036;2023-04-05T01:39:18;20.00;84.70
40023;DHT22;25713;-35.352;149.036;2023-04-05T01:41:48;20.00;85.10
40023;DHT22;25713;-35.352;149.036;2023-04-05T01:44:17;20.00;83.60
40023;DHT22;25713;-35.352;149.036;2023-04-05T01:46:49;20.00;83.40
40023;DHT22;25713;-35.352;149.036;2023-04-05T01:49:18;20.00;83.60
40023;DHT22;25713;-35.352;149.036;2023-04-05T01:51:48;20.10;86.20
40023;DHT22;25713;-35.352;149.036;2023-04-05T01:54:17;20.10;86.20
40023;DHT22;25713;-35.352;149.036;2023-04-05T01:56:47;20.10;85.70
40023;DHT22;25713;-35.352;149.036;2023-04-05T01:59:16;20.20;85.20
40023;DHT22;25713;-35.352;149.036;2023-04-05T02:01:47;20.20;84.70
40023;DHT22;25713;-35.352;149.036;2023-04-05T02:04:17;20.20;85.50
40023;DHT22;25713;-35.352;149.036;2023-04-05T02:06:46;20.20;84.70
40023;DHT22;25713;-35.352;149.036;2023-04-05T02:09:16;20.20;83.90
40023;DHT22;25713;-35.352;149.036;2023-04-05T02:11:47;20.20;86.00
40023;DHT22;25713;-35.352;149.036;2023-04-05T02:14:16;20.30;85.70
40023;DHT22;25713;-35.352;149.036;2023-04-05T02:16:48;20.30;84.20
40023;DHT22;25713;-35.352;149.036;2023-04-05T02:19:17;20.40;84.00
40023;DHT22;25713;-35.352;149.036;2023-04-05T02:21:46;20.40;83.80
40023;DHT22;25713;-35.352;149.036;2023-04-05T02:24:16;20.40;83.30
40023;DHT22;25713;-35.352;149.036;2023-04-05T02:26:47;20.40;83.80
40023;DHT22;25713;-35.352;149.036;2023-04-05T02:29:16;20.50;80.90
40023;DHT22;25713;-35.352;149.036;2023-04-05T02:31:48;20.50;83.00
40023;DHT22;25713;-35.352;149.036;2023-04-05T02:34:17;20.50;83.30
40023;DHT22;25713;-35.352;149.036;2023-04-05T02:36:47;20.50;83.50
40023;DHT22;25713;-35.352;149.036;2023-04-05T02:39:17;20.50;82.60
40023;DHT22;25713;-35.352;149.036;2023-04-05T02:41:47;20.60;80.50
40023;DHT22;25713;-35.352;149.036;2023-04-05T02:44:16;20.60;77.60
40023;DHT22;25713;-35.352;149.036;2023-04-05T02:46:48;20.70;80.80
40023;DHT22;25713;-35.352;149.036;2023-04-05T02:49:18;20.80;81.60
40023;DHT22;25713;-35.352;149.036;2023-04-05T02:51:48;20.80;78.60
40023;DHT22;25713;-35.352;149.036;2023-04-05T02:54:18;20.80;78.40
40023;DHT22;25713;-35.352;149.036;2023-04-05T02:56:48;20.80;81.10
40023;DHT22;25713;-35.352;149.036;2023-04-05T02:59:19;20.90;75.70
40023;DHT22;25713;-35.352;149.036;2023-04-05T03:01:51;20.90;76.10
40023;DHT22;25713;-35.352;149.036;2023-04-05T03:04:26;20.90;79.00
40023;DHT22;25713;-35.352;149.036;2023-04-05T03:07:02;20.90;77.90
40023;DHT22;25713;-35.352;149.036;2023-04-05T03:09:33;20.90;78.90
40023;DHT22;25713;-35.352;149.036;2023-04-05T03:12:07;20.90;76.40
40023;DHT22;25713;-35.352;149.036;2023-04-05T03:14:40;20.90;79.50
40023;DHT22;25713;-35.352;149.036;2023-04-05T03:17:15;20.90;79.80
40023;DHT22;25713;-35.352;149.036;2023-04-05T03:19:49;21.00;77.30
40023;DHT22;25713;-35.352;149.036;2023-04-05T03:22:23;21.00;79.70
40023;DHT22;25713;-35.352;149.036;2023-04-05T03:24:53;21.00;77.30
40023;DHT22;25713;-35.352;149.036;2023-04-05T03:27:24;21.00;75.90
40023;DHT22;25713;-35.352;149.036;2023-04-05T03:30:09;21.00;79.50
40023;DHT22;25713;-35.352;149.036;2023-04-05T03:32:47;21.00;78.20
40023;DHT22;25713;-35.352;149.036;2023-04-05T03:35:39;21.00;77.30
40023;DHT22;25713;-35.352;149.036;2023-04-05T03:38:10;20.90;77.00
40023;DHT22;25713;-35.352;149.036;2023-04-05T03:40:48;20.80;77.70
40023;DHT22;25713;-35.352;149.036;2023-04-05T03:43:17;20.80;79.40
40023;DHT22;25713;-35.352;149.036;2023-04-05T03:45:47;20.80;78.90
40023;DHT22;25713;-35.352;149.036;2023-04-05T03:48:18;20.80;78.10
40023;DHT22;25713;-35.352;149.036;2023-04-05T03:50:50;20.70;75.40
40023;DHT22;25713;-35.352;149.036;2023-04-05T03:53:21;20.70;73.70
40023;DHT22;25713;-35.352;149.036;2023-04-05T03:55:54;20.70;77.10
40023;DHT22;25713;-35.352;149.036;2023-04-05T03:58:44;20.70;78.10
40023;DHT22;25713;-35.352;149.036;2023-04-05T04:01:15;20.60;77.60
40023;DHT22;25713;-35.352;149.036;2023-04-05T04:03:46;20.70;79.30
40023;DHT22;25713;-35.352;149.036;2023-04-05T04:06:16;20.60;80.20
40023;DHT22;25713;-35.352;149.036;2023-04-05T04:08:45;20.60;81.40
40023;DHT22;25713;-35.352;149.036;2023-04-05T04:11:14;20.60;77.00
40023;DHT22;25713;-35.352;149.036;2023-04-05T04:13:44;20.60;77.40
40023;DHT22;25713;-35.352;149.036;2023-04-05T04:16:27;20.70;80.70
40023;DHT22;25713;-35.352;149.036;2023-04-05T04:19:00;20.70;81.00
40023;DHT22;25713;-35.352;149.036;2023-04-05T04:21:36;20.70;80.30
40023;DHT22;25713;-35.352;149.036;2023-04-05T04:24:14;20.70;77.90
40023;DHT22;25713;-35.352;149.036;2023-04-05T04:27:05;20.70;81.20
40023;DHT22;25713;-35.352;149.036;2023-04-05T04:30:11;20.60;79.40
40023;DHT22;25713;-35.352;149.036;2023-04-05T04:33:10;20.60;82.40
40023;DHT22;25713;-35.352;149.036;2023-04-05T04:36:07;20.60;82.10
40023;DHT22;25713;-35.352;149.036;2023-04-05T04:39:11;20.50;79.80
40023;DHT22;25713;-35.352;149.036;2023-04-05T04:42:03;20.50;79.80
40023;DHT22;25713;-35.352;149.036;2023-04-05T04:44:52;20.50;81.30
40023;DHT22;25713;-35.352;149.036;2023-04-05T04:47:32;20.50;82.50
40023;DHT22;25713;-35.352;149.036;2023-04-05T04:50:25;20.50;81.60
40023;DHT22;25713;-35.352;149.036;2023-04-05T04:52:58;20.50;82.60
40023;DHT22;25713;-35.352;149.036;2023-04-05T04:55:28;20.50;82.60
40023;DHT22;25713;-35.352;149.036;2023-04-05T04:57:58;20.50;76.10
40023;DHT22;25713;-35.352;149.036;2023-04-05T05:00:27;20.60;79.10
40023;DHT22;25713;-35.352;149.036;2023-04-05T05:02:57;20.60;80.70
40023;DHT22;25713;-35.352;149.036;2023-04-05T05:05:29;20.70;74.20
40023;DHT22;25713;-35.352;149.036;2023-04-05T05:08:01;20.60;71.70
40023;DHT22;25713;-35.352;149.036;2023-04-05T05:10:30;20.60;74.70
40023;DHT22;25713;-35.352;149.036;2023-04-05T05:13:04;20.70;73.70
40023;DHT22;25713;-35.352;149.036;2023-04-05T05:15:34;20.80;79.70
40023;DHT22;25713;-35.352;149.036;2023-04-05T05:18:03;20.80;80.60
40023;DHT22;25713;-35.352;149.036;2023-04-05T05:20:34;20.80;77.40
40023;DHT22;25713;-35.352;149.036;2023-04-05T05:23:05;20.80;72.30
40023;DHT22;25713;-35.352;149.036;2023-04-05T05:25:35;21.00;70.30
40023;DHT22;25713;-35.352;149.036;2023-04-05T05:28:04;21.00;76.10
40023;DHT22;25713;-35.352;149.036;2023-04-05T05:30:34;21.00;78.10
40023;DHT22;25713;-35.352;149.036;2023-04-05T05:33:03;21.00;75.00
40023;DHT22;25713;-35.352;149.036;2023-04-05T05:35:33;21.00;71.70
40023;DHT22;25713;-35.352;149.036;2023-04-05T05:38:04;21.10;72.50
40023;DHT22;25713;-35.352;149.036;2023-04-05T05:40:33;21.00;77.20
40023;DHT22;25713;-35.352;149.036;2023-04-05T05:43:03;21.00;75.90
40023;DHT22;25713;-35.352;149.036;2023-04-05T05:45:33;21.10;77.60
40023;DHT22;25713;-35.352;149.036;2023-04-05T05:48:02;21.10;76.40
40023;DHT22;25713;-35.352;149.036;2023-04-05T05:50:32;21.10;75.90
40023;DHT22;25713;-35.352;149.036;2023-04-05T05:53:02;21.10;72.50
40023;DHT22;25713;-35.352;149.036;2023-04-05T05:55:33;21.10;71.40
40023;DHT22;25713;-35.352;149.036;2023-04-05T05:58:03;21.10;75.00
40023;DHT22;25713;-35.352;149.036;2023-04-05T06:00:33;21.10;75.70
40023;DHT22;25713;-35.352;149.036;2023-04-05T06:03:02;21.20;74.60
40023;DHT22;25713;-35.352;149.036;2023-04-05T06:05:31;21.10;76.80
40023;DHT22;25713;-35.352;149.036;2023-04-05T06:08:01;21.10;73.10
40023;DHT22;25713;-35.352;149.036;2023-04-05T06:10:34;21.10;75.00
40023;DHT22;25713;-35.352;149.036;2023-04-05T06:13:04;21.10;72.60
40023;DHT22;25713;-35.352;149.036;2023-04-05T06:15:33;21.10;73.60
40023;DHT22;25713;-35.352;149.036;2023-04-05T06:18:03;21.00;72.60
40023;DHT22;25713;-35.352;149.036;2023-04-05T06:20:41;21.00;73.20
40023;DHT22;25713;-35.352;149.036;2023-04-05T06:23:11;21.00;73.30
40023;DHT22;25713;-35.352;149.036;2023-04-05T06:25:43;20.90;76.00
40023;DHT22;25713;-35.352;149.036;2023-04-05T06:28:13;20.90;76.30
40023;DHT22;25713;-35.352;149.036;2023-04-05T06:30:42;20.90;76.40
40023;DHT22;25713;-35.352;149.036;2023-04-05T06:33:12;20.80;77.10
40023;DHT22;25713;-35.352;149.036;2023-04-05T06:35:41;20.80;76.10
40023;DHT22;25713;-35.352;149.036;2023-04-05T06:38:11;20.80;76.00
40023;DHT22;25713;-35.352;149.036;2023-04-05T06:40:42;20.80;78.00
40023;DHT22;25713;-35.352;149.036;2023-04-05T06:43:11;20.70;78.10
40023;DHT22;25713;-35.352;149.036;2023-04-05T06:45:42;20.70;77.30
40023;DHT22;25713;-35.352;149.036;2023-04-05T06:48:11;20.70;77.70
40023;DHT22;25713;-35.352;149.036;2023-04-05T06:50:41;20.70;78.60
40023;DHT22;25713;-35.352;149.036;2023-04-05T06:53:10;20.70;76.40
40023;DHT22;25713;-35.352;149.036;2023-04-05T06:55:41;20.70;79.20
40023;DHT22;25713;-35.352;149.036;2023-04-05T06:58:11;20.60;78.90
40023;DHT22;25713;-35.352;149.036;2023-04-05T07:00:40;20.70;80.00
40023;DHT22;25713;-35.352;149.036;2023-04-05T07:03:09;20.60;79.80
40023;DHT22;25713;-35.352;149.036;2023-04-05T07:05:39;20.60;80.00
40023;DHT22;25713;-35.352;149.036;2023-04-05T07:08:08;20.60;80.30
40023;DHT22;25713;-35.352;149.036;2023-04-05T07:10:42;20.70;78.00
40023;DHT22;25713;-35.352;149.036;2023-04-05T07:13:12;20.60;76.40
40023;DHT22;25713;-35.352;149.036;2023-04-05T07:15:41;20.60;76.50
40023;DHT22;25713;-35.352;149.036;2023-04-05T07:18:11;20.60;75.40
40023;DHT22;25713;-35.352;149.036;2023-04-05T07:20:40;20.60;77.40
40023;DHT22;25713;-35.352;149.036;2023-04-05T07:23:10;20.60;77.30
40023;DHT22;25713;-35.352;149.036;2023-04-05T07:25:42;20.60;76.90
40023;DHT22;25713;-35.352;149.036;2023-04-05T07:28:12;20.60;77.40
40023;DHT22;25713;-35.352;149.036;2023-04-05T07:30:41;20.60;75.90
40023;DHT22;25713;-35.352;149.036;2023-04-05T07:33:10;20.60;77.80
40023;DHT22;25713;-35.352;149.036;2023-04-05T07:35:40;20.60;79.30
40023;DHT22;25713;-35.352;149.036;2023-04-05T07:38:09;20.60;77.70
40023;DHT22;25713;-35.352;149.036;2023-04-05T07:40:39;20.50;76.20
40023;DHT22;25713;-35.352;149.036;2023-04-05T07:43:10;20.50;75.70
40023;DHT22;25713;-35.352;149.036;2023-04-05T07:45:39;20.50;75.80
40023;DHT22;25713;-35.352;149.036;2023-04-05T07:48:09;20.50;75.40
40023;DHT22;25713;-35.352;149.036;2023-04-05T07:50:38;20.50;74.70
40023;DHT22;25713;-35.352;149.036;2023-04-05T07:53:08;20.40;77.60
40023;DHT22;25713;-35.352;149.036;2023-04-05T07:55:38;20.40;76.70
40023;DHT22;25713;-35.352;149.036;2023-04-05T07:58:09;20.40;77.80
40023;DHT22;25713;-35.352;149.036;2023-04-05T08:00:39;20.40;78.40
40023;DHT22;25713;-35.352;149.036;2023-04-05T08:03:08;20.40;78.90
40023;DHT22;25713;-35.352;149.036;2023-04-05T08:05:38;20.40;79.20
40023;DHT22;25713;-35.352;149.036;2023-04-05T08:08:07;20.40;79.90
40023;DHT22;25713;-35.352;149.036;2023-04-05T08:10:39;20.40;79.90
40023;DHT22;25713;-35.352;149.036;2023-04-05T08:13:10;20.40;80.00
40023;DHT22;25713;-35.352;149.036;2023-04-05T08:15:40;20.40;78.70
40023;DHT22;25713;-35.352;149.036;2023-04-05T08:18:09;20.30;78.20
40023;DHT22;25713;-35.352;149.036;2023-04-05T08:20:39;20.30;78.70
40023;DHT22;25713;-35.352;149.036;2023-04-05T08:23:08;20.30;78.10
40023;DHT22;25713;-35.352;149.036;2023-04-05T08:25:38;20.30;79.80
40023;DHT22;25713;-35.352;149.036;2023-04-05T08:28:07;20.30;79.70
40023;DHT22;25713;-35.352;149.036;2023-04-05T08:30:38;20.20;79.40
40023;DHT22;25713;-35.352;149.036;2023-04-05T08:33:08;20.20;78.30
40023;DHT22;25713;-35.352;149.036;2023-04-05T08:35:38;20.20;80.00
40023;DHT22;25713;-35.352;149.036;2023-04-05T08:38:07;20.20;80.20
40023;DHT22;25713;-35.352;149.036;2023-04-05T08:40:40;20.20;80.50
40023;DHT22;25713;-35.352;149.036;2023-04-05T08:43:12;20.20;79.70
40023;DHT22;25713;-35.352;149.036;2023-04-05T08:45:50;20.20;78.70
40023;DHT22;25713;-35.352;149.036;2023-04-05T08:48:22;20.20;80.50
40023;DHT22;25713;-35.352;149.036;2023-04-05T08:50:52;20.10;80.00
40023;DHT22;25713;-35.352;149.036;2023-04-05T08:53:21;20.10;81.20
40023;DHT22;25713;-35.352;149.036;2023-04-05T08:55:55;20.10;80.30
40023;DHT22;25713;-35.352;149.036;2023-04-05T08:58:26;20.10;80.30
40023;DHT22;25713;-35.352;149.036;2023-04-05T09:00:57;20.10;81.50
40023;DHT22;25713;-35.352;149.036;2023-04-05T09:03:28;20.10;82.40
40023;DHT22;25713;-35.352;149.036;2023-04-05T09:06:00;20.10;83.10
40023;DHT22;25713;-35.352;149.036;2023-04-05T09:08:30;20.10;81.40
40023;DHT22;25713;-35.352;149.036;2023-04-05T09:11:00;20.10;82.30
40023;DHT22;25713;-35.352;149.036;2023-04-05T09:13:30;20.10;82.10
40023;DHT22;25713;-35.352;149.036;2023-04-05T09:16:01;20.10;83.30
40023;DHT22;25713;-35.352;149.036;2023-04-05T09:18:31;20.10;82.10
40023;DHT22;25713;-35.352;149.036;2023-04-05T09:21:04;20.10;83.00
40023;DHT22;25713;-35.352;149.036;2023-04-05T09:23:34;20.10;83.60
40023;DHT22;25713;-35.352;149.036;2023-04-05T09:26:18;20.10;83.90
40023;DHT22;25713;-35.352;149.036;2023-04-05T09:28:48;20.10;83.70
40023;DHT22;25713;-35.352;149.036;2023-04-05T09:31:35;20.00;81.50
40023;DHT22;25713;-35.352;149.036;2023-04-05T09:34:10;20.00;83.30
40023;DHT22;25713;-35.352;149.036;2023-04-05T09:36:48;20.00;83.50
40023;DHT22;25713;-35.352;149.036;2023-04-05T09:39:17;20.00;84.60
40023;DHT22;25713;-35.352;149.036;2023-04-05T09:42:06;20.00;84.80
40023;DHT22;25713;-35.352;149.036;2023-04-05T09:44:55;20.00;84.90
40023;DHT22;25713;-35.352;149.036;2023-04-05T09:47:29;20.00;85.30
40023;DHT22;25713;-35.352;149.036;2023-04-05T09:50:01;20.00;84.70
40023;DHT22;25713;-35.352;149.036;2023-04-05T09:52:31;20.00;85.10
40023;DHT22;25713;-35.352;149.036;2023-04-05T09:55:01;20.00;85.40
40023;DHT22;25713;-35.352;149.036;2023-04-05T09:57:35;20.00;85.40
40023;DHT22;25713;-35.352;149.036;2023-04-05T10:00:05;20.00;85.50
40023;DHT22;25713;-35.352;149.036;2023-04-05T10:02:46;20.00;85.80
40023;DHT22;25713;-35.352;149.036;2023-04-05T10:05:24;20.00;85.50
40023;DHT22;25713;-35.352;149.036;2023-04-05T10:07:55;20.00;86.00
40023;DHT22;25713;-35.352;149.036;2023-04-05T10:10:25;20.00;85.50
40023;DHT22;25713;-35.352;149.036;2023-04-05T10:12:55;20.00;85.50
40023;DHT22;25713;-35.352;149.036;2023-04-05T10:15:25;19.90;85.50
40023;DHT22;25713;-35.352;149.036;2023-04-05T10:17:59;20.00;85.60
40023;DHT22;25713;-35.352;149.036;2023-04-05T10:20:31;20.00;85.70
40023;DHT22;25713;-35.352;149.036;2023-04-05T10:23:05;19.90;85.80
40023;DHT22;25713;-35.352;149.036;2023-04-05T10:25:45;19.90;86.00
40023;DHT22;25713;-35.352;149.036;2023-04-05T10:28:21;19.90;86.00
40023;DHT22;25713;-35.352;149.036;2023-04-05T10:30:59;19.90;86.10
40023;DHT22;25713;-35.352;149.036;2023-04-05T10:33:38;19.90;86.30
40023;DHT22;25713;-35.352;149.036;2023-04-05T10:36:16;19.90;86.30
40023;DHT22;25713;-35.352;149.036;2023-04-05T10:38:54;19.90;86.40
40023;DHT22;25713;-35.352;149.036;2023-04-05T10:41:33;19.90;86.90
40023;DHT22;25713;-35.352;149.036;2023-04-05T10:44:04;19.90;86.80
40023;DHT22;25713;-35.352;149.036;2023-04-05T10:46:33;19.90;86.90
40023;DHT22;25713;-35.352;149.036;2023-04-05T10:49:10;19.90;87.00
40023;DHT22;25713;-35.352;149.036;2023-04-05T10:51:40;19.80;87.00
40023;DHT22;25713;-35.352;149.036;2023-04-05T10:54:11;19.80;87.40
40023;DHT22;25713;-35.352;149.036;2023-04-05T10:56:40;19.80;87.20
40023;DHT22;25713;-35.352;149.036;2023-04-05T10:59:10;19.80;87.10
40023;DHT22;25713;-35.352;149.036;2023-04-05T11:01:41;19.80;87.30
40023;DHT22;25713;-35.352;149.036;2023-04-05T11:04:16;19.80;88.00
40023;DHT22;25713;-35.352;149.036;2023-04-05T11:06:46;19.80;87.80
40023;DHT22;25713;-35.352;149.036;2023-04-05T11:09:16;19.80;87.50
40023;DHT22;25713;-35.352;149.036;2023-04-05T11:11:47;19.80;87.70
40023;DHT22;25713;-35.352;149.036;2023-04-05T11:14:20;19.80;87.30
40023;DHT22;25713;-35.352;149.036;2023-04-05T11:16:51;19.80;88.10
40023;DHT22;25713;-35.352;149.036;2023-04-05T11:19:48;19.80;87.40
40023;DHT22;25713;-35.352;149.036;2023-04-05T11:22:26;19.80;88.20
40023;DHT22;25713;-35.352;149.036;2023-04-05T11:24:56;19.70;87.90
40023;DHT22;25713;-35.352;149.036;2023-04-05T11:27:27;19.70;87.80
40023;DHT22;25713;-35.352;149.036;2023-04-05T11:29:57;19.70;87.80
40023;DHT22;25713;-35.352;149.036;2023-04-05T11:32:40;19.70;88.50
40023;DHT22;25713;-35.352;149.036;2023-04-05T11:35:14;19.70;87.80
40023;DHT22;25713;-35.352;149.036;2023-04-05T11:38:05;19.70;88.40
40023;DHT22;25713;-35.352;149.036;2023-04-05T11:40:35;19.70;89.40
40023;DHT22;25713;-35.352;149.036;2023-04-05T11:43:06;19.70;88.90
40023;DHT22;25713;-35.352;149.036;2023-04-05T11:45:36;19.60;88.40
40023;DHT22;25713;-35.352;149.036;2023-04-05T11:48:07;19.70;88.90
40023;DHT22;25713;-35.352;149.036;2023-04-05T11:50:39;19.60;89.20
40023;DHT22;25713;-35.352;149.036;2023-04-05T11:53:13;19.60;88.70
40023;DHT22;25713;-35.352;149.036;2023-04-05T11:55:43;19.60;88.50
40023;DHT22;25713;-35.352;149.036;2023-04-05T11:58:14;19.60;88.60
40023;DHT22;25713;-35.352;149.036;2023-04-05T12:00:44;19.60;89.10
40023;DHT22;25713;-35.352;149.036;2023-04-05T12:03:14;19.60;89.10
40023;DHT22;25713;-35.352;149.036;2023-04-05T12:05:51;19.50;88.20
40023;DHT22;25713;-35.352;149.036;2023-04-05T12:08:22;19.60;88.90
40023;DHT22;25713;-35.352;149.036;2023-04-05T12:10:56;19.60;89.30
40023;DHT22;25713;-35.352;149.036;2023-04-05T12:13:30;19.50;89.20
40023;DHT22;25713;-35.352;149.036;2023-04-05T12:16:01;19.50;88.50
40023;DHT22;25713;-35.352;149.036;2023-04-05T12:18:32;19.50;88.50
40023;DHT22;25713;-35.352;149.036;2023-04-05T12:21:06;19.50;89.30
40023;DHT22;25713;-35.352;149.036;2023-04-05T12:23:36;19.50;88.30
40023;DHT22;25713;-35.352;149.036;2023-04-05T12:26:07;19.50;88.40
40023;DHT22;25713;-35.352;149.036;2023-04-05T12:28:55;19.50;88.10
40023;DHT22;25713;-35.352;149.036;2023-04-05T12:31:40;19.50;88.10
40023;DHT22;25713;-35.352;149.036;2023-04-05T12:34:10;19.50;89.20
40023;DHT22;25713;-35.352;149.036;2023-04-05T12:36:44;19.50;88.50
40023;DHT22;25713;-35.352;149.036;2023-04-05T12:39:16;19.50;88.40
40023;DHT22;25713;-35.352;149.036;2023-04-05T12:41:57;19.40;88.90
40023;DHT22;25713;-35.352;149.036;2023-04-05T12:44:30;19.40;88.30
40023;DHT22;25713;-35.352;149.036;2023-04-05T12:47:01;19.40;88.00
40023;DHT22;25713;-35.352;149.036;2023-04-05T12:49:33;19.40;88.10
40023;DHT22;25713;-35.352;149.036;2023-04-05T12:52:05;19.40;87.90
40023;DHT22;25713;-35.352;149.036;2023-04-05T12:54:34;19.40;87.60
40023;DHT22;25713;-35.352;149.036;2023-04-05T12:57:04;19.40;87.60
40023;DHT22;25713;-35.352;149.036;2023-04-05T12:59:33;19.40;87.50
40023;DHT22;25713;-35.352;149.036;2023-04-05T13:02:03;19.40;87.50
40023;DHT22;25713;-35.352;149.036;2023-04-05T13:04:32;19.30;87.50
40023;DHT22;25713;-35.352;149.036;2023-04-05T13:07:04;19.30;88.30
40023;DHT22;25713;-35.352;149.036;2023-04-05T13:09:33;19.30;87.60
40023;DHT22;25713;-35.352;149.036;2023-04-05T13:12:03;19.30;87.10
40023;DHT22;25713;-35.352;149.036;2023-04-05T13:14:32;19.30;87.10
40023;DHT22;25713;-35.352;149.036;2023-04-05T13:17:02;19.30;87.30
40023;DHT22;25713;-35.352;149.036;2023-04-05T13:19:31;19.30;87.20
40023;DHT22;25713;-35.352;149.036;2023-04-05T13:22:01;19.30;87.10
40023;DHT22;25713;-35.352;149.036;2023-04-05T13:24:32;19.30;87.10
40023;DHT22;25713;-35.352;149.036;2023-04-05T13:27:01;19.30;87.20
40023;DHT22;25713;-35.352;149.036;2023-04-05T13:29:31;19.30;87.00
40023;DHT22;25713;-35.352;149.036;2023-04-05T13:32:00;19.30;87.20
40023;DHT22;25713;-35.352;149.036;2023-04-05T13:34:30;19.20;87.40
40023;DHT22;25713;-35.352;149.036;2023-04-05T13:36:59;19.20;87.70
40023;DHT22;25713;-35.352;149.036;2023-04-05T13:39:32;19.20;87.60
40023;DHT22;25713;-35.352;149.036;2023-04-05T13:42:01;19.20;88.20
40023;DHT22;25713;-35.352;149.036;2023-04-05T13:44:30;19.20;88.00
40023;DHT22;25713;-35.352;149.036;2023-04-05T13:47:00;19.20;88.00
40023;DHT22;25713;-35.352;149.036;2023-04-05T13:49:29;19.20;87.60
40023;DHT22;25713;-35.352;149.036;2023-04-05T13:51:59;19.20;87.90
40023;DHT22;25713;-35.352;149.036;2023-04-05T13:54:28;19.20;87.70
40023;DHT22;25713;-35.352;149.036;2023-04-05T13:56:59;19.20;87.60
40023;DHT22;25713;-35.352;149.036;2023-04-05T13:59:29;19.20;87.60
40023;DHT22;25713;-35.352;149.036;2023-04-05T14:01:58;19.20;87.60
40023;DHT22;25713;-35.352;149.036;2023-04-05T14:04:28;19.10;87.50
40023;DHT22;25713;-35.352;149.036;2023-04-05T14:06:58;19.10;87.70
40023;DHT22;25713;-35.352;149.036;2023-04-05T14:09:27;19.10;87.30
40023;DHT22;25713;-35.352;149.036;2023-04-05T14:12:00;19.10;87.60
40023;DHT22;25713;-35.352;149.036;2023-04-05T14:14:30;19.10;87.40
40023;DHT22;25713;-35.352;149.036;2023-04-05T14:16:59;19.10;87.50
40023;DHT22;25713;-35.352;149.036;2023-04-05T14:19:29;19.10;87.50
40023;DHT22;25713;-35.352;149.036;2023-04-05T14:21:58;19.10;87.60
40023;DHT22;25713;-35.352;149.036;2023-04-05T14:24:28;19.10;87.60
40023;DHT22;25713;-35.352;149.036;2023-04-05T14:26:59;19.10;87.40
40023;DHT22;25713;-35.352;149.036;2023-04-05T14:29:29;19.10;87.60
40023;DHT22;25713;-35.352;149.036;2023-04-05T14:31:58;19.00;87.40
40023;DHT22;25713;-35.352;149.036;2023-04-05T14:34:28;19.00;87.30
40023;DHT22;25713;-35.352;149.036;2023-04-05T14:36:57;19.10;87.60
40023;DHT22;25713;-35.352;149.036;2023-04-05T14:39:27;19.00;87.60
40023;DHT22;25713;-35.352;149.036;2023-04-05T14:41:56;19.00;87.40
40023;DHT22;25713;-35.352;149.036;2023-04-05T14:44:28;19.00;87.30
40023;DHT22;25713;-35.352;149.036;2023-04-05T14:46:57;18.90;87.20
40023;DHT22;25713;-35.352;149.036;2023-04-05T15:51:42;18.50;87.80
40023;DHT22;25713;-35.352;149.036;2023-04-05T15:54:11;18.50;87.90
40023;DHT22;25713;-35.352;149.036;2023-04-05T15:56:41;18.50;87.40
40023;DHT22;25713;-35.352;149.036;2023-04-05T15:59:11;18.50;87.20
40023;DHT22;25713;-35.352;149.036;2023-04-05T16:01:41;18.50;87.50
40023;DHT22;25713;-35.352;149.036;2023-04-05T16:04:10;18.50;87.60
40023;DHT22;25713;-35.352;149.036;2023-04-05T16:06:42;18.50;87.70
40023;DHT22;25713;-35.352;149.036;2023-04-05T16:09:11;18.50;87.80
40023;DHT22;25713;-35.352;149.036;2023-04-05T16:11:41;18.60;87.50
40023;DHT22;25713;-35.352;149.036;2023-04-05T16:14:10;18.60;87.30
40023;DHT22;25713;-35.352;149.036;2023-04-05T16:16:40;18.60;87.30
40023;DHT22;25713;-35.352;149.036;2023-04-05T16:19:10;18.60;87.30
40023;DHT22;25713;-35.352;149.036;2023-04-05T16:21:41;18.60;87.40
40023;DHT22;25713;-35.352;149.036;2023-04-05T16:24:11;18.60;87.30